Hauptseite
METAR-TAF:

METAR-TAF

Flughäfen :

Militärflugplatz Deelen

Arnheim, Niederlande

Breite: 52-04N, Länge: 005-53E, Höhe: 48 m

Beobachtung

Neuester Wetterbericht von vor 36 Minuten, um 09:25 UTC
Wind 13 kt aus Südwest, variierte zwischen Südost und West/Nordwest
Temperatur 14°C
Luftfeuchtigkeit 82%
Luftdruck 1004 hPa
Sichtweite 10 km oder mehr
Geschlossene Wolkendecke in der Höhe von 5900 ft

METAR: EHDL 240925Z AUTO 22013KT 140V290 9999 OVC059 14/11 Q1004 BLU

Zeit: 12:01 (10:01 UTC)


TAF: fehlend

Wetterbeobachtungen und Prognosen von mehr als 4000 Flughäfen (METAR und TAF Bericht).

Die verfügbaren Stationen werden durch gelbe und rote Markierungen auf der Karte dargestellt.

Führen Sie die Maus auf sie, um den Namen der Station zu sehen.

Darauf klicken, um die Beobachtung von Wetterbeobachtungen und Prognosen zu sehen.

Um die Karte zu ändern : klicken Sie auf den grünen Tasten mit einem schwarzen Kreuz Zum Vergrößern, auf den grünen Button mit einem Gedankenstrich zu verkleinern, oder auf die grünen Pfeile für benachbarte Karten.


METAR-TAF: